Flight Track Log - Related Links

Times and Time Zones

All times are in EDT time to prevent confusion due to time zone crossing. See the N745VJ flight status page for this flight to view local times or setup timezone preferences in your user account.

Time Position Orientation Groundspeed Altitude Reporting Facility
EDT Latitude Longitude Course Direction KTS MPH feet Rate Location/Type
Mon 06:36:32 AM 35.2306 -80.9392 90° East 156 180 1,700  Level Atlanta Center
Mon 06:37:52 AM 35.2944 -80.9114 20° North 239 275 4,300 2,061 Climbing Atlanta Center
Mon 06:38:43 AM 35.2989 -80.8425 85° East 263 303 6,200 2,595 Climbing Atlanta Center
Mon 06:39:43 AM 35.2922 -80.7436 95° East 297 342 9,100 2,650 Climbing Atlanta Center
Mon 06:40:00 AM 35.2250 -80.5489 30° Northeast  Level FlightAware
Mon 06:40:43 AM 35.2936 -80.6417 89° East 319 367 11,500  Level Atlanta Center
Mon 06:41:00 AM 35.3167 -80.4726 90° East  Level FlightAware
Mon 06:42:41 AM 35.3517 -80.4078 73° East 363 418 16,000  Level Washington Center
Mon 06:43:41 AM 35.3903 -80.2800 70° East 376 433 18,300 1,900 Climbing Washington Center
Mon 06:44:41 AM 35.4308 -80.1472 69° East 398 458 19,800 1,785 Climbing Washington Center
Mon 06:45:42 AM 35.4647 -80.0217 72° East 420 483 21,900 2,017 Climbing Washington Center
Mon 06:46:40 AM 35.5014 -79.8758 73° East 431 496 23,800 2,017 Climbing Washington Center
Mon 06:47:41 AM 35.5378 -79.7297 73° East 440 506 25,900 1,934 Climbing Washington Center
Mon 06:48:41 AM 35.5808 -79.5658 72° East 445 512 27,700 1,714 Climbing Washington Center
Mon 06:49:40 AM 35.6186 -79.4325 71° East 457 526 29,300 1,664 Climbing Washington Center
Mon 06:50:40 AM 35.6778 -79.2767 65° Northeast 457 526 31,000 1,537 Climbing Washington Center
Mon 06:51:41 AM 35.7364 -79.1308 64° Northeast 462 532 32,400 1,475 Climbing Washington Center
Mon 06:52:42 AM 35.7950 -78.9878 63° Northeast 462 532 34,000 1,300 Climbing Washington Center
Mon 06:53:41 AM 35.8572 -78.8467 61° Northeast 462 532 35,000 821 Climbing Washington Center
Mon 06:54:39 AM 35.9417 -78.7297 48° Northeast 462 532 35,600 504 Climbing Washington Center
Mon 06:55:40 AM 36.0444 -78.6361 36° Northeast 456 525 36,000 639 Climbing Washington Center
Mon 06:56:41 AM 36.1531 -78.5425 35° Northeast 456 525 36,900 541 Climbing Washington Center
Mon 06:57:42 AM 36.2533 -78.4536 36° Northeast 451 519 37,100 51 Climbing Washington Center
Mon 06:58:39 AM 36.3578 -78.3619 35° Northeast 451 519 37,000 -51 Descending Washington Center
Mon 06:59:40 AM 36.4664 -78.2625 36° Northeast 466 536 37,000  Level Washington Center
Mon 07:00:41 AM 36.5811 -78.1631 35° Northeast 483 556 37,000  Level Washington Center
Mon 07:01:42 AM 36.6792 -78.0731 36° Northeast 489 563 37,000 50 Level Washington Center
Mon 07:02:40 AM 36.8044 -77.9578 36° Northeast 494 568 37,100  Climbing Washington Center
Mon 07:03:40 AM 36.9028 -77.8333 45° Northeast 494 568 37,000 -50 Descending Washington Center
Mon 07:04:40 AM 36.9847 -77.6953 53° Northeast 494 568 37,000  Level Washington Center
Mon 07:05:40 AM 37.0683 -77.5519 54° Northeast 499 574 37,000  Level Washington Center
Mon 07:06:41 AM 37.1542 -77.4133 52° Northeast 499 574 37,000  Level Washington Center
Mon 07:07:41 AM 37.2375 -77.2719 53° Northeast 499 574 37,000  Level Washington Center
Mon 07:08:40 AM 37.3247 -77.1381 51° Northeast 493 567 37,000 50 Level Washington Center
Mon 07:09:40 AM 37.4386 -77.0356 36° Northeast 487 560 37,100  Climbing Washington Center
Mon 07:10:40 AM 37.5461 -76.9564 30° Northeast 487 560 37,000 -50 Descending Washington Center
Mon 07:11:41 AM 37.6617 -76.8694 31° Northeast 488 562 37,000  Level Washington Center
Mon 07:12:42 AM 37.7753 -76.7844 31° Northeast 482 555 37,000 50 Level Washington Center
Mon 07:13:42 AM 37.8908 -76.6994 30° Northeast 482 555 37,100  Climbing Washington Center
Mon 07:14:40 AM 38.0103 -76.6092 31° Northeast 482 555 37,000 -50 Descending Washington Center
Mon 07:15:41 AM 38.1258 -76.5208 31° Northeast 482 555 37,000  Level Washington Center
Mon 07:16:41 AM 38.2433 -76.4325 31° Northeast 482 555 37,000  Level Washington Center
Mon 07:17:39 AM 38.3692 -76.3253 34° Northeast 482 555 37,000 -454 Level Washington Center
Mon 07:18:40 AM 38.4803 -76.2203 36° Northeast 489 563 36,100 -878 Descending Washington Center
Mon 07:19:42 AM 38.5828 -76.1256 36° Northeast 506 582 35,200 -1,525 Descending Washington Center
Mon 07:20:42 AM 38.6958 -76.0253 35° Northeast 506 582 33,000 -2,769 Descending Washington Center
Mon 07:21:39 AM 38.8086 -75.9192 36° Northeast 500 575 29,800 -2,797 Descending Washington Center
Mon 07:22:40 AM 38.9194 -75.8131 37° Northeast 500 575 27,500 -1,377 Descending Washington Center
Mon 07:23:41 AM 39.0278 -75.7144 35° Northeast 490 564 27,000 -836 Descending Washington Center
Mon 07:24:42 AM 39.1300 -75.6131 38° Northeast 479 551 25,800 -1,240 Descending Washington Center
Mon 07:25:42 AM 39.2258 -75.5247 36° Northeast 453 521 24,500 -1,424 Descending Washington Center
Mon 07:26:40 AM 39.3197 -75.4386 35° Northeast 428 493 23,000 -1,765 Descending Washington Center
Mon 07:27:41 AM 39.4069 -75.3633 34° Northeast 398 458 21,000 -2,033 Descending Washington Center
Mon 07:28:41 AM 39.4922 -75.2878 34° Northeast 380 437 18,900 -1,488 Descending Washington Center
Mon 07:29:42 AM 39.5692 -75.2147 36° Northeast 358 412 18,000 -843 Descending Washington Center
Mon 07:30:42 AM 39.6461 -75.1414 36° Northeast 344 396 17,200 -712 Descending Washington Center
Mon 07:31:40 AM 39.7228 -75.0761 33° Northeast 334 384 16,600 -857 Descending Washington Center
Mon 07:32:41 AM 39.8100 -75.0000 34° Northeast 334 384 15,500 -1,190 Descending Washington Center
Mon 07:33:41 AM 39.8931 -74.9289 33° Northeast 348 400 14,200 -1,385 Descending Washington Center
Mon 07:34:51 AM 39.9833 -74.8167 44° Northeast 343 395 12,500 -1,477 Descending New TRACON
Mon 07:35:51 AM 40.0333 -74.7333 52° Northeast 337 388 11,000 -1,200 Descending New TRACON
Mon 07:36:51 AM 40.1000 -74.6500 44° Northeast 322 371 10,100 -500 Descending New TRACON
Mon 07:37:51 AM 40.1500 -74.5667 52° Northeast 322 371 10,000 -550 Descending New TRACON
Mon 07:38:51 AM 40.2167 -74.4833 44° Northeast 298 343 9,000 -1,000 Descending New TRACON
Mon 07:40:51 AM 40.3333 -74.3333 44° Northeast 298 343 7,000 -667 Descending New TRACON
Mon 07:41:51 AM 40.4000 -74.2500 44° Northeast 297 342 7,000  Level New TRACON
Mon 07:42:51 AM 40.4500 -74.1833 45° Northeast 299 344 7,000 -650 Level New TRACON
Mon 07:43:51 AM 40.5167 -74.1167 37° Northeast 295 339 5,700 -1,000 Descending New TRACON
Mon 07:44:51 AM 40.6000 -74.0833 17° North 279 321 5,000 -750 Descending New TRACON
Mon 07:45:51 AM 40.6667 -74.0500 21° North 272 313 4,200 -526 Descending New TRACON
Mon 07:46:45 AM 40.7333 -74.0167 21° North 264 304 4,000 -100 Descending New TRACON
Mon 07:47:51 AM 40.8000 -73.9833 21° North 257 296 4,000  Level New TRACON
Mon 07:48:51 AM 40.8667 -73.9500 21° North 260 299 4,000  Level New TRACON
Mon 07:49:45 AM 40.9333 -73.9167 21° North 259 298 4,000 -250 Level New TRACON
Mon 07:50:51 AM 40.9667 -73.8667 49° Northeast 196 226 3,500 -476 Descending New TRACON
Mon 07:51:51 AM 40.9667 -73.8000 90° East 178 205 3,000 -500 Descending New TRACON

Login

Don't have an account? Register now (free) for customized features, flight alerts, and more!